Time;durP1;ratioP1;P1;durP2;ratioP2;P2;SDS_P1;SDS_P2;PMS_P1;PMS_P2;Temp;Humidity;BMP_temperature;BMP_pressure;BME280_temperature;BME280_humidity;BME280_pressure;Samples;Min_cycle;Max_cycle;Signal;HPM_P1;HPM_P2
2021/11/04 00:00:50;;;;;;;65.72;20.10;;;7.30;94.50;;;;;;5072302;28;20035;-72
2021/11/04 00:03:16;;;;;;;113.38;21.75;;;7.30;94.50;;;;;;5072007;28;20016;-72
2021/11/04 00:05:41;;;;;;;93.25;21.50;;;7.30;94.50;;;;;;5072654;28;20023;-73
2021/11/04 00:08:07;;;;;;;65.97;18.40;;;7.30;94.50;;;;;;5072203;28;20028;-73
2021/11/04 00:10:35;;;;;;;58.17;19.80;;;7.30;94.50;;;;;;5073440;28;20060;-72
2021/11/04 00:13:01;;;;;;;72.60;17.88;;;7.40;94.40;;;;;;5072886;28;20029;-73
2021/11/04 00:15:27;;;;;;;142.35;20.15;;;7.40;94.50;;;;;;5072451;28;20112;-72
2021/11/04 00:17:52;;;;;;;170.80;21.08;;;7.40;94.50;;;;;;5072161;28;20052;-73
2021/11/04 00:20:19;;;;;;;64.22;16.20;;;7.30;94.30;;;;;;5071882;28;20039;-72
2021/11/04 00:22:46;;;;;;;105.68;18.42;;;7.30;94.30;;;;;;5054010;28;20020;-74
2021/11/04 00:25:12;;;;;;;86.57;18.40;;;7.30;94.40;;;;;;5072292;28;20103;-72
2021/11/04 00:27:38;;;;;;;74.90;18.30;;;7.30;94.30;;;;;;5053907;28;20078;-74
2021/11/04 00:30:06;;;;;;;193.48;20.75;;;7.30;94.40;;;;;;5071835;28;20028;-73
2021/11/04 00:32:32;;;;;;;180.40;21.25;;;7.30;94.40;;;;;;5054088;28;20025;-73
2021/11/04 00:34:58;;;;;;;104.63;17.92;;;7.20;94.30;;;;;;5072184;28;20074;-73
2021/11/04 00:37:23;;;;;;;95.82;18.55;;;7.20;94.30;;;;;;5071930;28;20052;-74
2021/11/04 00:39:49;;;;;;;62.65;18.40;;;7.20;94.30;;;;;;5054154;28;20440;-73
2021/11/04 00:42:14;;;;;;;63.35;18.13;;;7.10;94.40;;;;;;5072143;28;20017;-73
2021/11/04 00:44:40;;;;;;;75.40;17.60;;;7.10;94.50;;;;;;5071886;28;20025;-74
2021/11/04 00:47:06;;;;;;;78.10;18.90;;;7.10;94.60;;;;;;5072184;28;20028;-73
2021/11/04 00:49:32;;;;;;;75.40;18.17;;;7.10;94.70;;;;;;5071809;28;20051;-73
2021/11/04 00:51:58;;;;;;;101.90;16.02;;;7.10;94.60;;;;;;5071812;28;20465;-72
2021/11/04 00:54:23;;;;;;;75.13;16.38;;;7.10;94.50;;;;;;5072182;28;20039;-73
2021/11/04 00:56:49;;;;;;;82.63;17.45;;;7.10;94.50;;;;;;5054175;28;20044;-73
2021/11/04 00:59:15;;;;;;;164.13;20.02;;;7.00;94.40;;;;;;5072094;28;20021;-72
2021/11/04 01:01:41;;;;;;;105.75;18.25;;;7.00;94.40;;;;;;5071773;28;20028;-73
2021/11/04 01:04:07;;;;;;;137.55;18.63;;;7.00;94.50;;;;;;5071916;28;20120;-73
2021/11/04 01:06:33;;;;;;;71.63;17.08;;;6.90;94.50;;;;;;5072380;28;20071;-73
2021/11/04 01:08:58;;;;;;;101.95;18.13;;;6.90;94.60;;;;;;5054799;28;20083;-73
2021/11/04 01:11:24;;;;;;;47.58;14.43;;;6.90;94.70;;;;;;5072453;28;20465;-73
2021/11/04 01:13:51;;;;;;;76.88;15.32;;;6.90;94.70;;;;;;5072084;28;20070;-73
2021/11/04 01:16:17;;;;;;;105.00;16.98;;;6.90;94.70;;;;;;5071839;28;20024;-72
2021/11/04 01:18:43;;;;;;;73.50;16.42;;;6.90;94.70;;;;;;5071794;28;20028;-73
2021/11/04 01:21:10;;;;;;;141.07;18.40;;;6.90;94.60;;;;;;5071792;28;20020;-73
2021/11/04 01:23:36;;;;;;;134.30;18.48;;;6.90;94.60;;;;;;5071847;28;20029;-73
2021/11/04 01:26:03;;;;;;;100.80;16.80;;;6.90;94.70;;;;;;5071453;28;20506;-74
2021/11/04 01:28:29;;;;;;;89.90;16.38;;;6.90;94.60;;;;;;5071286;28;20063;-73
2021/11/04 01:30:55;;;;;;;123.78;18.63;;;6.90;94.60;;;;;;5053345;28;20028;-73
2021/11/04 01:33:20;;;;;;;108.63;16.92;;;6.80;94.60;;;;;;5074217;28;20024;-74
2021/11/04 01:35:46;;;;;;;88.88;17.08;;;6.90;94.70;;;;;;5075432;28;20020;-73
2021/11/04 01:38:12;;;;;;;110.25;16.38;;;6.90;94.70;;;;;;5075221;28;20025;-73
2021/11/04 01:40:39;;;;;;;119.10;17.50;;;6.90;94.80;;;;;;5057307;28;20029;-72
2021/11/04 01:43:05;;;;;;;136.70;18.70;;;6.90;94.80;;;;;;5075031;28;20017;-73
2021/11/04 01:45:32;;;;;;;53.70;16.65;;;6.90;94.80;;;;;;5075319;28;20020;-74
2021/11/04 01:47:57;;;;;;;65.80;17.05;;;6.90;94.90;;;;;;5057090;28;20110;-73
2021/11/04 01:50:24;;;;;;;71.03;18.23;;;6.90;94.90;;;;;;5074989;28;20041;-72
2021/11/04 01:52:50;;;;;;;54.28;16.25;;;7.00;95.20;;;;;;5057002;28;20024;-73
2021/11/04 01:55:19;;;;;;;59.08;16.15;;;7.00;94.90;;;;;;5057014;28;20081;-73
2021/11/04 01:57:46;;;;;;;65.63;17.05;;;7.00;95.00;;;;;;5074921;28;20032;-72
2021/11/04 02:00:13;;;;;;;134.88;20.52;;;7.00;94.90;;;;;;5074965;28;20511;-71
2021/11/04 02:02:45;;;;;;;124.88;19.73;;;7.00;94.80;;;;;;5056576;28;20492;-72
2021/11/04 02:05:16;;;;;;;77.78;20.05;;;7.00;94.80;;;;;;5074633;28;20540;-73
2021/11/04 02:07:52;;;;;;;99.95;20.63;;;7.10;94.90;;;;;;5074516;28;20032;-73
2021/11/04 02:10:39;;;;;;;86.30;20.20;;;7.10;94.90;;;;;;5074737;28;20024;-73
2021/11/04 02:13:15;;;;;;;129.55;21.02;;;7.10;94.90;;;;;;5090863;28;20032;-73
2021/11/04 02:15:42;;;;;;;144.80;20.60;;;7.10;94.90;;;;;;5096422;28;20468;-73
2021/11/04 02:18:10;;;;;;;140.93;22.30;;;7.10;94.90;;;;;;5094651;28;20036;-73
2021/11/04 02:20:45;;;;;;;65.72;19.98;;;7.10;94.80;;;;;;5076392;28;20036;-73
2021/11/04 02:23:17;;;;;;;93.85;21.17;;;7.10;95.00;;;;;;5094464;28;20016;-73
2021/11/04 02:25:44;;;;;;;90.95;20.88;;;7.10;95.00;;;;;;5094597;28;20055;-73
2021/11/04 02:28:12;;;;;;;76.05;20.13;;;7.10;95.00;;;;;;5094618;28;20544;-73
2021/11/04 02:30:39;;;;;;;58.60;20.58;;;7.10;95.00;;;;;;5076865;28;20095;-73
2021/11/04 02:33:06;;;;;;;53.58;20.02;;;7.10;94.80;;;;;;5095508;28;20047;-73
2021/11/04 02:35:32;;;;;;;56.97;19.55;;;7.20;95.00;;;;;;5097044;28;20020;-73
2021/11/04 02:37:58;;;;;;;46.03;19.15;;;7.10;94.90;;;;;;5097810;28;20020;-71
2021/11/04 02:40:25;;;;;;;63.35;19.42;;;7.10;94.80;;;;;;5095039;28;20020;-72
2021/11/04 02:42:52;;;;;;;33.63;18.67;;;7.10;94.70;;;;;;5095698;28;20029;-74
2021/11/04 02:45:23;;;;;;;40.88;19.63;;;7.10;94.80;;;;;;5094288;28;20020;-72
2021/11/04 02:47:50;;;;;;;43.75;20.58;;;7.00;94.90;;;;;;5076210;28;20024;-71
2021/11/04 02:50:18;;;;;;;41.53;19.77;;;7.00;95.20;;;;;;5076117;28;20168;-72
2021/11/04 02:52:44;;;;;;;41.22;21.08;;;7.10;94.80;;;;;;5075726;28;20139;-73
2021/11/04 02:55:10;;;;;;;44.50;21.85;;;7.00;94.90;;;;;;5094166;28;20092;-73
2021/11/04 02:57:48;;;;;;;38.17;20.25;;;7.10;94.90;;;;;;5094161;28;20028;-72
2021/11/04 03:00:16;;;;;;;36.45;21.13;;;7.10;95.20;;;;;;5094202;28;20016;-72
2021/11/04 03:02:42;;;;;;;37.42;20.23;;;7.10;94.90;;;;;;5076254;28;20111;-73
2021/11/04 03:05:08;;;;;;;36.47;21.92;;;7.10;94.80;;;;;;5094833;28;20051;-73
2021/11/04 03:07:34;;;;;;;42.47;21.90;;;7.10;94.80;;;;;;5094887;28;20031;-72
2021/11/04 03:10:00;;;;;;;43.63;21.77;;;7.20;94.80;;;;;;5094384;28;20047;-72
2021/11/04 03:12:25;;;;;;;43.60;22.60;;;7.10;94.60;;;;;;5093952;28;20487;-73
2021/11/04 03:14:52;;;;;;;43.58;23.95;;;7.10;94.70;;;;;;5093957;28;20016;-74
2021/11/04 03:17:18;;;;;;;41.20;21.55;;;7.10;94.70;;;;;;5093746;28;20032;-73
2021/11/04 03:19:45;;;;;;;38.53;23.20;;;7.00;94.70;;;;;;5093692;28;20035;-73
2021/11/04 03:22:11;;;;;;;40.05;23.77;;;7.00;94.80;;;;;;5093490;28;20382;-74
2021/11/04 03:24:37;;;;;;;44.00;24.52;;;7.00;95.00;;;;;;5093450;28;20035;-74
2021/11/04 03:27:06;;;;;;;37.20;21.42;;;7.10;95.10;;;;;;5093606;28;20039;-75
2021/11/04 03:29:37;;;;;;;46.50;24.52;;;7.10;95.00;;;;;;5093375;28;20032;-73
2021/11/04 03:32:16;;;;;;;46.35;26.65;;;7.10;95.00;;;;;;5075037;28;20027;-74
2021/11/04 03:34:43;;;;;;;50.70;27.55;;;7.10;95.00;;;;;;5092916;28;20416;-73
2021/11/04 03:37:11;;;;;;;47.45;27.20;;;7.20;95.10;;;;;;5093045;28;20024;-73
2021/11/04 03:39:39;;;;;;;59.47;28.45;;;7.20;95.10;;;;;;5093042;28;20024;-73
2021/11/04 03:42:05;;;;;;;50.33;27.73;;;7.20;95.00;;;;;;5093550;28;20020;-73
2021/11/04 03:44:32;;;;;;;54.65;29.40;;;7.30;95.00;;;;;;5092805;28;20027;-73
2021/11/04 03:47:00;;;;;;;52.70;27.92;;;7.30;95.00;;;;;;5093051;28;20123;-73
2021/11/04 03:49:26;;;;;;;54.50;27.05;;;7.30;95.00;;;;;;5074859;28;20066;-72
2021/11/04 03:51:52;;;;;;;57.75;26.95;;;7.40;95.10;;;;;;5093000;28;20020;-72
2021/11/04 03:54:22;;;;;;;55.28;28.00;;;7.30;95.00;;;;;;5074803;28;20047;-72
2021/11/04 03:56:49;;;;;;;51.35;26.98;;;7.40;95.00;;;;;;5092615;28;20432;-73
2021/11/04 03:59:15;;;;;;;52.45;28.08;;;7.40;94.90;;;;;;5092888;28;20047;-72
2021/11/04 04:01:40;;;;;;;59.38;30.48;;;7.40;94.90;;;;;;5092505;28;20448;-73
2021/11/04 04:04:08;;;;;;;72.40;33.67;;;7.40;94.90;;;;;;5092501;28;20475;-72
2021/11/04 04:06:35;;;;;;;71.57;35.08;;;7.40;94.90;;;;;;5092401;28;20066;-73
2021/11/04 04:09:02;;;;;;;92.00;37.08;;;7.40;95.10;;;;;;5092791;28;20024;-73
2021/11/04 04:11:27;;;;;;;84.25;39.20;;;7.40;95.20;;;;;;5074828;28;20028;-72
2021/11/04 04:13:55;;;;;;;77.35;36.17;;;7.40;95.20;;;;;;5094367;28;20032;-73
2021/11/04 04:16:22;;;;;;;87.75;38.33;;;7.40;95.30;;;;;;5074894;28;20012;-72
2021/11/04 04:18:48;;;;;;;95.22;38.30;;;7.50;95.30;;;;;;5092648;28;20107;-72
2021/11/04 04:21:14;;;;;;;111.97;38.22;;;7.50;95.30;;;;;;5092199;28;20395;-73
2021/11/04 04:23:41;;;;;;;126.78;39.03;;;7.50;95.30;;;;;;5092338;28;20023;-72
2021/11/04 04:26:07;;;;;;;90.25;39.15;;;7.50;95.30;;;;;;5092253;28;20024;-73
2021/11/04 04:28:33;;;;;;;100.97;42.55;;;7.50;95.30;;;;;;5092201;28;20063;-72
2021/11/04 04:30:58;;;;;;;105.00;41.22;;;7.60;95.30;;;;;;5092276;28;20146;-73
2021/11/04 04:33:24;;;;;;;115.95;43.20;;;7.60;95.40;;;;;;5074864;28;20535;-73
2021/11/04 04:35:51;;;;;;;142.63;42.55;;;7.60;95.40;;;;;;5074862;28;20081;-72
2021/11/04 04:38:17;;;;;;;215.48;44.10;;;7.60;95.30;;;;;;5093212;28;20059;-72
2021/11/04 04:40:43;;;;;;;128.00;42.28;;;7.60;95.40;;;;;;5092452;28;20055;-73
2021/11/04 04:43:09;;;;;;;108.47;43.05;;;7.60;95.30;;;;;;5092425;28;20052;-73
2021/11/04 04:45:34;;;;;;;138.32;42.63;;;7.60;95.40;;;;;;5091883;28;20036;-74
2021/11/04 04:48:00;;;;;;;93.20;38.63;;;7.50;95.40;;;;;;5074054;28;20038;-74
2021/11/04 04:50:25;;;;;;;125.72;41.85;;;7.60;95.40;;;;;;5074074;28;20107;-73
2021/11/04 04:52:51;;;;;;;97.82;39.50;;;7.60;95.40;;;;;;5092209;28;20054;-73
2021/11/04 04:55:17;;;;;;;114.03;41.58;;;7.60;95.40;;;;;;5092143;28;20012;-73
2021/11/04 04:57:48;;;;;;;94.53;42.38;;;7.60;95.40;;;;;;5091912;28;20503;-75
2021/11/04 05:00:14;;;;;;;94.18;39.60;;;7.60;95.40;;;;;;5091895;28;20024;-73
2021/11/04 05:02:42;;;;;;;81.05;38.15;;;7.60;95.40;;;;;;5073690;28;20465;-73
2021/11/04 05:05:09;;;;;;;88.07;39.92;;;7.60;95.40;;;;;;5073528;28;20112;-73
2021/11/04 05:07:35;;;;;;;81.22;38.30;;;7.60;95.40;;;;;;5093321;28;20119;-73
2021/11/04 05:10:02;;;;;;;97.70;40.17;;;7.60;95.40;;;;;;5096136;28;20524;-73
2021/11/04 05:12:28;;;;;;;124.20;38.22;;;7.50;95.40;;;;;;5096167;28;20107;-74
2021/11/04 05:14:55;;;;;;;90.32;36.42;;;7.50;95.40;;;;;;5095887;28;20133;-73
2021/11/04 05:17:21;;;;;;;76.00;37.53;;;7.50;95.40;;;;;;5095750;28;20024;-73
2021/11/04 05:19:46;;;;;;;70.75;38.33;;;7.50;95.40;;;;;;5096021;28;20028;-74
2021/11/04 05:22:12;;;;;;;78.45;37.83;;;7.50;95.40;;;;;;5095922;28;20453;-72
2021/11/04 05:24:38;;;;;;;82.05;39.47;;;7.50;95.40;;;;;;5095357;28;20028;-72
2021/11/04 05:27:05;;;;;;;84.68;37.30;;;7.40;95.30;;;;;;5095958;28;20028;-73
2021/11/04 05:29:31;;;;;;;76.95;38.17;;;7.40;95.30;;;;;;5095679;28;20024;-73
2021/11/04 05:31:58;;;;;;;75.93;36.33;;;7.40;95.40;;;;;;5095418;28;20032;-73
2021/11/04 05:34:24;;;;;;;78.57;38.33;;;7.40;95.40;;;;;;5095724;28;20099;-73
2021/11/04 05:36:49;;;;;;;98.40;39.92;;;7.40;95.40;;;;;;5090567;28;20066;-73
2021/11/04 05:39:15;;;;;;;99.65;39.85;;;7.40;95.50;;;;;;5084746;28;20078;-72
2021/11/04 05:41:41;;;;;;;76.50;39.15;;;7.40;95.40;;;;;;5084537;28;20024;-74
2021/11/04 05:44:07;;;;;;;86.63;37.53;;;7.40;95.50;;;;;;5086154;28;20047;-73
2021/11/04 05:46:32;;;;;;;89.85;41.97;;;7.40;95.50;;;;;;5084135;28;20048;-73
2021/11/04 05:48:58;;;;;;;81.57;39.72;;;7.40;95.50;;;;;;5084586;28;20028;-73
2021/11/04 05:51:24;;;;;;;111.40;38.70;;;7.40;95.50;;;;;;5085636;28;20448;-73
2021/11/04 05:53:49;;;;;;;112.93;39.47;;;7.40;95.50;;;;;;5065329;28;20140;-73
2021/11/04 05:56:15;;;;;;;94.40;39.47;;;7.40;95.50;;;;;;5085197;28;20028;-73
2021/11/04 05:58:40;;;;;;;187.18;38.45;;;7.40;95.50;;;;;;5084311;28;20392;-73
2021/11/04 06:01:06;;;;;;;170.75;45.28;;;7.40;95.50;;;;;;5083539;28;20056;-72
2021/11/04 06:03:32;;;;;;;112.25;42.20;;;7.40;95.50;;;;;;5085413;28;20102;-71
2021/11/04 06:05:57;;;;;;;147.48;42.33;;;7.40;95.50;;;;;;5084281;28;20126;-73
2021/11/04 06:08:23;;;;;;;95.05;40.72;;;7.40;95.50;;;;;;5083778;28;20032;-73
2021/11/04 06:10:49;;;;;;;125.75;39.72;;;7.40;95.50;;;;;;5085206;28;20028;-73
2021/11/04 06:13:15;;;;;;;95.68;38.97;;;7.40;95.30;;;;;;5084215;28;20415;-73
2021/11/04 06:15:41;;;;;;;102.63;38.72;;;7.40;95.30;;;;;;5093746;28;20522;-74
2021/11/04 06:18:07;;;;;;;112.38;37.88;;;7.40;95.30;;;;;;5077716;28;20046;-73
2021/11/04 06:20:33;;;;;;;92.30;39.92;;;7.30;95.30;;;;;;5094567;28;20028;-72
2021/11/04 06:22:58;;;;;;;90.45;37.55;;;7.30;95.30;;;;;;5076354;28;20021;-72
2021/11/04 06:25:24;;;;;;;100.70;39.08;;;7.30;95.40;;;;;;5076621;28;20032;-73
2021/11/04 06:27:50;;;;;;;106.07;38.92;;;7.40;95.40;;;;;;5094520;28;20092;-73
2021/11/04 06:30:15;;;;;;;123.60;37.65;;;7.40;95.30;;;;;;5095123;28;20047;-72
2021/11/04 06:32:41;;;;;;;110.53;37.38;;;7.40;95.40;;;;;;5095481;28;20028;-72
2021/11/04 06:35:08;;;;;;;131.60;38.50;;;7.30;95.30;;;;;;5094819;28;20059;-73
2021/11/04 06:37:35;;;;;;;219.13;40.42;;;7.30;95.20;;;;;;5094521;28;20036;-74
2021/11/04 06:40:01;;;;;;;92.55;40.95;;;7.30;95.30;;;;;;5094116;28;20031;-72
2021/11/04 06:42:27;;;;;;;130.18;40.67;;;7.30;95.30;;;;;;5094744;28;20028;-72
2021/11/04 06:44:52;;;;;;;104.05;38.30;;;7.30;95.30;;;;;;5076211;28;20488;-73
2021/11/04 06:47:30;;;;;;;90.90;38.72;;;7.30;95.30;;;;;;5076143;28;20024;-72
2021/11/04 06:49:57;;;;;;;125.15;34.45;;;7.30;95.40;;;;;;5094086;28;20082;-73
2021/11/04 06:52:33;;;;;;;161.52;35.95;;;7.30;95.30;;;;;;5094237;28;20441;-73
2021/11/04 06:55:02;;;;;;;86.53;36.67;;;7.20;95.20;;;;;;5093688;28;20024;-74
2021/11/04 06:57:29;;;;;;;116.93;37.30;;;7.20;95.20;;;;;;5094126;28;20032;-73
2021/11/04 06:59:58;;;;;;;98.43;33.28;;;7.20;95.30;;;;;;5093772;28;20032;-73
2021/11/04 07:02:43;;;;;;;81.88;33.83;;;7.20;95.30;;;;;;5075730;28;20473;-73
2021/11/04 07:05:12;;;;;;;105.28;33.83;;;7.10;95.40;;;;;;5093921;28;20025;-72
2021/11/04 07:07:49;;;;;;;223.82;37.55;;;7.10;95.50;;;;;;5093645;28;20461;-73
2021/11/04 07:10:18;;;;;;;235.98;35.28;;;7.10;95.60;;;;;;5093947;28;20031;-72
2021/11/04 07:12:47;;;;;;;106.03;31.38;;;7.10;95.50;;;;;;5093763;28;20463;-72
2021/11/04 07:15:14;;;;;;;104.55;35.45;;;7.10;95.50;;;;;;5093878;28;20020;-73
2021/11/04 07:17:42;;;;;;;162.55;34.60;;;7.10;95.60;;;;;;5093374;28;20028;-73
2021/11/04 07:20:10;;;;;;;84.97;29.13;;;7.10;95.60;;;;;;5093506;28;20024;-73
2021/11/04 07:22:44;;;;;;;118.35;31.52;;;7.10;95.60;;;;;;5075115;28;20020;-72
2021/11/04 07:25:13;;;;;;;81.45;33.05;;;7.10;95.60;;;;;;5093529;28;20469;-73
2021/11/04 07:28:00;;;;;;;114.63;30.83;;;7.10;95.70;;;;;;5093210;28;20111;-73
2021/11/04 07:30:27;;;;;;;194.98;34.28;;;7.10;95.70;;;;;;5092713;28;20042;-73
2021/11/04 07:32:55;;;;;;;126.47;30.90;;;7.10;95.70;;;;;;5093377;28;20020;-74
2021/11/04 07:35:24;;;;;;;95.85;29.58;;;7.10;95.60;;;;;;5093406;28;20027;-74
2021/11/04 07:37:50;;;;;;;105.43;30.35;;;7.10;95.60;;;;;;5093051;28;20161;-73
2021/11/04 07:40:18;;;;;;;123.57;30.20;;;7.10;95.50;;;;;;5093171;28;20172;-73
2021/11/04 07:42:44;;;;;;;103.20;28.25;;;7.20;95.60;;;;;;5092816;28;20111;-73
2021/11/04 07:45:11;;;;;;;93.72;27.30;;;7.20;95.60;;;;;;5093365;28;20114;-73
2021/11/04 07:47:39;;;;;;;168.48;30.33;;;7.20;95.50;;;;;;5075070;28;20074;-72
2021/11/04 07:50:07;;;;;;;82.57;28.98;;;7.20;95.40;;;;;;5092613;28;20028;-73
2021/11/04 07:52:35;;;;;;;76.43;26.33;;;7.20;95.40;;;;;;5093094;28;20024;-73
2021/11/04 07:55:01;;;;;;;73.78;26.63;;;7.20;95.40;;;;;;5092676;28;20028;-73
2021/11/04 07:57:28;;;;;;;112.30;26.10;;;7.20;95.40;;;;;;5092543;28;20035;-72
2021/11/04 07:59:54;;;;;;;132.13;24.98;;;7.20;95.20;;;;;;5092680;28;20223;-73
2021/11/04 08:02:19;;;;;;;118.10;25.08;;;7.10;95.20;;;;;;5074607;28;20521;-72
2021/11/04 08:04:45;;;;;;;78.22;25.45;;;7.10;95.10;;;;;;5092790;28;20513;-73
2021/11/04 08:07:10;;;;;;;111.97;26.13;;;7.10;95.30;;;;;;5074502;28;20124;-73
2021/11/04 08:09:37;;;;;;;138.30;25.90;;;7.10;95.40;;;;;;5092663;28;20044;-75
2021/11/04 08:12:03;;;;;;;68.35;23.65;;;7.20;95.40;;;;;;5074505;28;20088;-72
2021/11/04 08:14:29;;;;;;;66.25;22.17;;;7.30;95.20;;;;;;5093327;28;20020;-73
2021/11/04 08:16:56;;;;;;;83.95;23.20;;;7.30;95.30;;;;;;5092853;28;20028;-72
2021/11/04 08:19:21;;;;;;;71.22;23.02;;;7.40;95.20;;;;;;5093923;28;20124;-72
2021/11/04 08:21:47;;;;;;;47.00;21.95;;;7.60;95.00;;;;;;5075600;28;20421;-73
2021/11/04 08:24:12;;;;;;;40.15;22.20;;;7.70;94.80;;;;;;5088993;28;20020;-74
2021/11/04 08:26:38;;;;;;;50.78;23.15;;;7.80;94.80;;;;;;5063126;28;20024;-74
2021/11/04 08:29:04;;;;;;;39.55;22.25;;;7.90;94.50;;;;;;5081420;28;20033;-73
2021/11/04 08:31:30;;;;;;;33.72;21.20;;;7.90;94.10;;;;;;5079938;28;20415;-73
2021/11/04 08:33:56;;;;;;;40.60;21.98;;;7.90;94.10;;;;;;5081027;28;20036;-73
2021/11/04 08:36:23;;;;;;;43.03;21.50;;;7.90;94.10;;;;;;5081382;28;20055;-73
2021/11/04 08:38:49;;;;;;;35.65;21.20;;;8.00;94.20;;;;;;5079512;28;20107;-73
2021/11/04 08:41:15;;;;;;;45.17;23.92;;;8.00;94.10;;;;;;5081062;28;20104;-74
2021/11/04 08:43:41;;;;;;;47.08;24.15;;;8.00;94.20;;;;;;5080356;28;20100;-74
2021/11/04 08:46:07;;;;;;;48.45;25.77;;;8.00;94.30;;;;;;5079501;28;20025;-74
2021/11/04 08:48:34;;;;;;;48.25;24.50;;;8.00;94.20;;;;;;5078978;28;20024;-73
2021/11/04 08:50:59;;;;;;;40.75;22.98;;;8.00;94.20;;;;;;5080692;28;20029;-73
2021/11/04 08:53:26;;;;;;;36.05;21.98;;;8.00;94.20;;;;;;5080540;28;20035;-73
2021/11/04 08:55:51;;;;;;;43.85;26.23;;;8.00;94.20;;;;;;5084857;28;20523;-74
2021/11/04 08:58:17;;;;;;;46.38;25.60;;;8.00;94.40;;;;;;5081539;28;20056;-73
2021/11/04 09:00:43;;;;;;;39.05;25.30;;;8.10;94.60;;;;;;5080921;28;20056;-74
2021/11/04 09:03:09;;;;;;;37.45;24.20;;;8.10;94.50;;;;;;5079734;28;20020;-75
2021/11/04 09:05:37;;;;;;;38.03;24.92;;;8.10;94.50;;;;;;5088890;28;20074;-74
2021/11/04 09:08:05;;;;;;;33.75;23.13;;;8.20;94.60;;;;;;5088307;28;20127;-74
2021/11/04 09:10:31;;;;;;;36.67;25.38;;;8.30;94.60;;;;;;5072038;28;20111;-75
2021/11/04 09:12:56;;;;;;;37.17;24.17;;;8.40;94.50;;;;;;5072025;28;20143;-74
2021/11/04 09:15:22;;;;;;;36.95;23.88;;;8.50;94.20;;;;;;5071776;28;20035;-74
2021/11/04 09:17:48;;;;;;;33.95;23.40;;;8.60;94.30;;;;;;5053657;28;20329;-74
2021/11/04 09:20:16;;;;;;;40.53;26.30;;;8.70;94.00;;;;;;5071717;28;20485;-74
2021/11/04 09:22:46;;;;;;;40.10;26.73;;;8.60;93.70;;;;;;5071935;28;20025;-74
2021/11/04 09:25:12;;;;;;;33.50;24.02;;;8.70;93.80;;;;;;5078495;28;20502;-73
2021/11/04 09:27:38;;;;;;;33.20;24.23;;;8.70;93.70;;;;;;5085007;28;20028;-74
2021/11/04 09:30:04;;;;;;;32.17;22.88;;;8.70;93.60;;;;;;5091545;28;20051;-73
2021/11/04 09:32:29;;;;;;;35.70;24.27;;;8.70;93.60;;;;;;5092038;28;20050;-75
2021/11/04 09:34:56;;;;;;;31.52;22.55;;;8.70;93.80;;;;;;5092014;28;20070;-74
2021/11/04 09:37:21;;;;;;;34.88;24.48;;;8.80;93.80;;;;;;5091908;28;20028;-74
2021/11/04 09:39:50;;;;;;;34.78;24.20;;;8.90;93.60;;;;;;5091132;28;20024;-74
2021/11/04 09:42:18;;;;;;;33.75;24.35;;;8.90;93.50;;;;;;5073229;28;20424;-74
2021/11/04 09:44:47;;;;;;;37.33;25.98;;;8.90;93.40;;;;;;5073800;28;20057;-74
2021/11/04 09:47:16;;;;;;;38.05;24.58;;;8.90;93.60;;;;;;5081827;28;20028;-74
2021/11/04 09:49:42;;;;;;;41.38;25.38;;;8.90;93.20;;;;;;5098264;28;20038;-74
2021/11/04 09:52:08;;;;;;;34.13;23.27;;;9.00;93.40;;;;;;5092330;28;20081;-74
2021/11/04 09:54:34;;;;;;;33.40;23.70;;;9.00;93.50;;;;;;5094941;28;20024;-74
2021/11/04 09:56:59;;;;;;;34.85;23.70;;;9.10;93.10;;;;;;5076874;28;20428;-73
2021/11/04 09:59:25;;;;;;;33.00;23.95;;;9.10;93.10;;;;;;5095070;28;20026;-73
2021/11/04 10:01:51;;;;;;;34.50;23.95;;;9.10;93.00;;;;;;5076882;28;20060;-73
2021/11/04 10:04:33;;;;;;;33.22;22.77;;;9.10;92.70;;;;;;5079537;28;20025;-73
2021/11/04 10:06:59;;;;;;;40.42;26.50;;;9.10;92.70;;;;;;5074927;28;20469;-74
2021/11/04 10:09:28;;;;;;;38.55;26.77;;;9.00;92.80;;;;;;5076468;28;20086;-73
2021/11/04 10:11:54;;;;;;;37.28;25.20;;;9.00;92.90;;;;;;5084691;28;20023;-74
2021/11/04 10:14:20;;;;;;;40.63;25.85;;;8.90;92.90;;;;;;5065222;28;20021;-74
2021/11/04 10:16:46;;;;;;;39.00;26.40;;;9.00;93.10;;;;;;5080711;28;20024;-73
2021/11/04 10:19:17;;;;;;;33.22;24.27;;;9.00;93.10;;;;;;5090535;28;20032;-73
2021/11/04 10:21:48;;;;;;;37.03;24.50;;;9.20;92.90;;;;;;5098142;28;20024;-74
2021/11/04 10:24:20;;;;;;;37.42;24.75;;;9.20;92.60;;;;;;5079271;28;20400;-74
2021/11/04 10:26:46;;;;;;;39.00;27.27;;;9.30;92.50;;;;;;5094649;28;20088;-74
2021/11/04 10:29:14;;;;;;;39.10;26.63;;;9.30;92.60;;;;;;5076485;28;20484;-74
2021/11/04 10:31:43;;;;;;;37.63;26.67;;;9.30;92.60;;;;;;5076426;28;20102;-74
2021/11/04 10:34:30;;;;;;;42.05;26.80;;;9.30;92.60;;;;;;5093055;28;20030;-73
2021/11/04 10:37:11;;;;;;;44.92;28.50;;;9.30;92.50;;;;;;5076605;28;20032;-74
2021/11/04 10:39:40;;;;;;;50.45;29.35;;;9.30;92.50;;;;;;5094752;28;20021;-74
2021/11/04 10:42:06;;;;;;;44.60;27.97;;;9.30;92.40;;;;;;5076213;28;20379;-74
2021/11/04 10:44:32;;;;;;;39.25;26.13;;;9.20;92.50;;;;;;5076156;28;20116;-74
2021/11/04 10:46:58;;;;;;;42.30;28.23;;;9.20;92.70;;;;;;5094455;28;20032;-73
2021/11/04 10:49:25;;;;;;;40.25;27.13;;;9.30;92.70;;;;;;5094210;28;20417;-73
2021/11/04 10:52:03;;;;;;;39.75;26.63;;;9.30;92.70;;;;;;5094293;28;20066;-73
2021/11/04 10:54:43;;;;;;;35.22;25.85;;;9.30;92.50;;;;;;5094721;28;20131;-74
2021/11/04 10:57:09;;;;;;;41.38;27.30;;;9.30;92.40;;;;;;5093983;28;20034;-74
2021/11/04 10:59:44;;;;;;;36.45;24.88;;;9.30;92.30;;;;;;5093893;28;20024;-75
2021/11/04 11:02:09;;;;;;;34.80;24.50;;;9.40;92.30;;;;;;5075886;28;20016;-75
2021/11/04 11:04:35;;;;;;;37.63;24.65;;;9.30;92.30;;;;;;5075234;28;20077;-74
2021/11/04 11:07:01;;;;;;;32.72;23.35;;;9.30;92.30;;;;;;5093729;28;20028;-74
2021/11/04 11:09:29;;;;;;;35.17;24.67;;;9.30;92.30;;;;;;5094148;28;20099;-74
2021/11/04 11:11:58;;;;;;;32.13;21.38;;;9.30;92.40;;;;;;5093838;28;20493;-74
2021/11/04 11:14:28;;;;;;;40.03;25.73;;;9.40;92.40;;;;;;5075688;28;20028;-74
2021/11/04 11:16:56;;;;;;;;;;;9.40;92.20;;;;;;5093725;28;20052;-74
2021/11/04 11:19:23;;;;;;;38.70;24.77;;;9.40;92.30;;;;;;5075548;28;19911;-74
2021/11/04 11:21:51;;;;;;;33.58;23.48;;;9.50;92.10;;;;;;5093371;28;20499;-74
2021/11/04 11:24:38;;;;;;;30.15;21.98;;;9.60;92.10;;;;;;5093373;28;20016;-74
2021/11/04 11:27:15;;;;;;;35.15;22.77;;;9.60;91.90;;;;;;5092070;28;20543;-73
2021/11/04 11:29:43;;;;;;;33.97;23.23;;;9.70;91.90;;;;;;5075469;28;20425;-74
2021/11/04 11:32:23;;;;;;;30.25;21.85;;;9.70;91.70;;;;;;5075018;28;20047;-74
2021/11/04 11:35:11;;;;;;;31.17;21.50;;;9.80;91.60;;;;;;5093818;28;20047;-74
2021/11/04 11:37:43;;;;;;;27.13;19.70;;;9.80;91.80;;;;;;5076028;28;20040;-75
2021/11/04 11:40:14;;;;;;;32.60;20.33;;;9.80;91.70;;;;;;5093517;28;20016;-74
2021/11/04 11:43:00;;;;;;;32.60;23.00;;;9.70;91.60;;;;;;5075116;28;20020;-74
2021/11/04 11:45:34;;;;;;;31.38;21.40;;;9.70;91.50;;;;;;5075164;28;20054;-75
2021/11/04 11:48:20;;;;;;;30.02;21.27;;;9.70;91.60;;;;;;5093191;28;20408;-75
2021/11/04 11:50:48;;;;;;;27.73;19.02;;;9.70;91.80;;;;;;5093049;28;20025;-75
2021/11/04 11:53:25;;;;;;;28.75;21.33;;;9.70;91.70;;;;;;5075277;28;20036;-75
2021/11/04 11:56:01;;;;;;;32.63;22.02;;;9.70;91.70;;;;;;5093927;28;20046;-75
2021/11/04 11:58:32;;;;;;;30.48;22.02;;;9.80;91.70;;;;;;5093940;28;20043;-75
2021/11/04 12:01:02;;;;;;;31.30;21.08;;;9.80;91.50;;;;;;5078187;28;20027;-74
2021/11/04 12:03:31;;;;;;;;;;;9.80;91.70;;;;;;5090390;28;20059;-74
2021/11/04 12:05:56;;;;;;;30.88;22.38;;;9.90;91.70;;;;;;5105472;28;19915;-75
2021/11/04 12:08:28;;;;;;;30.83;22.08;;;9.90;91.70;;;;;;5093750;28;20027;-76
2021/11/04 12:10:55;;;;;;;34.45;25.17;;;9.90;91.60;;;;;;5092668;28;20062;-75
2021/11/04 12:13:41;;;;;;;33.63;23.23;;;10.00;91.90;;;;;;5074587;28;20024;-76
2021/11/04 12:16:23;;;;;;;28.63;21.08;;;10.00;91.70;;;;;;5092920;28;20020;-75
2021/11/04 12:19:00;;;;;;;26.63;19.60;;;10.10;91.60;;;;;;5075478;28;20059;-74
2021/11/04 12:21:28;;;;;;;30.48;22.83;;;10.10;91.40;;;;;;5104859;28;20044;-75
2021/11/04 12:23:57;;;;;;;28.90;22.00;;;10.10;91.70;;;;;;5097204;28;20468;-75
2021/11/04 12:26:29;;;;;;;28.92;21.45;;;10.20;91.40;;;;;;5074401;28;20020;-75
2021/11/04 12:28:54;;;;;;;29.30;21.83;;;10.30;91.20;;;;;;5074404;28;20036;-75
2021/11/04 12:31:25;;;;;;;27.08;21.27;;;10.30;91.50;;;;;;5070458;28;20111;-75
2021/11/04 12:33:55;;;;;;;29.48;21.17;;;10.40;91.10;;;;;;5072569;28;20129;-75
2021/11/04 12:36:51;;;;;;;30.10;21.48;;;10.40;91.00;;;;;;5072039;28;20465;-75
2021/11/04 12:39:23;;;;;;;28.40;21.48;;;10.50;90.80;;;;;;5050008;28;20040;-74